createdAt,value
2018-07-16T00:00:22.895Z,90.40
2018-07-16T00:02:51.449Z,92.30
2018-07-16T00:05:19.911Z,92.90
2018-07-16T00:07:48.454Z,94.50
2018-07-16T00:10:16.900Z,92.30
2018-07-16T00:12:45.441Z,93.70
2018-07-16T00:15:13.934Z,94.20
2018-07-16T00:17:42.397Z,95.70
2018-07-16T00:20:10.843Z,96.70
2018-07-16T00:25:07.718Z,96.40
2018-07-16T00:30:04.505Z,97.20
2018-07-16T00:32:32.931Z,97.20
2018-07-16T00:35:01.416Z,97.90
2018-07-16T00:40:00.862Z,97.40
2018-07-16T00:42:29.314Z,98.50
2018-07-16T00:44:57.774Z,98.10
2018-07-16T00:49:54.325Z,99.20
2018-07-16T00:52:22.764Z,99.50
2018-07-16T00:54:51.228Z,99.90
2018-07-16T00:57:19.667Z,99.50
2018-07-16T00:59:48.119Z,99.80
2018-07-16T01:02:16.569Z,99.90
2018-07-16T01:04:45.025Z,99.90
2018-07-16T01:07:13.492Z,99.90
2018-07-16T01:09:42.621Z,99.90
2018-07-16T01:12:11.160Z,99.90
2018-07-16T01:14:39.620Z,99.90
2018-07-16T01:17:08.142Z,99.90
2018-07-16T01:19:36.985Z,99.90
2018-07-16T01:22:05.472Z,99.90
2018-07-16T01:24:33.900Z,99.90
2018-07-16T01:27:02.349Z,99.90
2018-07-16T01:29:31.750Z,99.90
2018-07-16T01:32:00.209Z,99.90
2018-07-16T01:36:56.749Z,99.90
2018-07-16T01:39:25.181Z,99.90
2018-07-16T01:41:53.610Z,99.90
2018-07-16T01:44:22.070Z,99.90
2018-07-16T01:46:50.521Z,99.90
2018-07-16T01:49:18.960Z,99.90
2018-07-16T01:54:15.557Z,99.90
2018-07-16T01:56:43.990Z,99.90
2018-07-16T02:01:40.501Z,99.90
2018-07-16T02:04:08.956Z,99.90
2018-07-16T02:06:37.405Z,99.90
2018-07-16T02:09:05.958Z,99.90
2018-07-16T02:11:34.388Z,99.90
2018-07-16T02:14:02.837Z,99.90
2018-07-16T02:16:31.293Z,99.90
2018-07-16T02:18:59.736Z,99.90
2018-07-16T02:21:28.180Z,99.90
2018-07-16T02:23:56.605Z,99.90
2018-07-16T02:26:25.080Z,99.90
2018-07-16T02:28:53.493Z,99.90
2018-07-16T02:31:21.929Z,99.90
2018-07-16T02:33:50.394Z,99.90
2018-07-16T02:36:18.825Z,99.90
2018-07-16T02:38:47.276Z,99.90
2018-07-16T02:41:15.752Z,99.90
2018-07-16T02:43:44.240Z,99.90
2018-07-16T02:51:08.918Z,99.90
2018-07-16T02:53:37.342Z,99.90
2018-07-16T02:56:05.837Z,99.90
2018-07-16T03:01:02.451Z,99.90
2018-07-16T03:03:30.885Z,99.90
2018-07-16T03:05:59.337Z,99.90
2018-07-16T03:08:27.788Z,99.90
2018-07-16T03:10:56.253Z,99.90
2018-07-16T03:13:24.670Z,99.90
2018-07-16T03:15:53.136Z,99.90
2018-07-16T03:18:21.552Z,99.90
2018-07-16T03:20:49.977Z,99.90
2018-07-16T03:23:18.425Z,99.90
2018-07-16T03:25:46.844Z,99.90
2018-07-16T03:28:15.300Z,99.90
2018-07-16T03:30:44.078Z,99.90
2018-07-16T03:33:12.505Z,99.90
2018-07-16T03:35:40.953Z,99.90
2018-07-16T03:38:09.409Z,99.90
2018-07-16T03:40:37.852Z,99.90
2018-07-16T03:43:06.340Z,99.90
2018-07-16T03:48:02.997Z,99.90
2018-07-16T03:50:31.388Z,99.90
2018-07-16T03:52:59.809Z,99.90
2018-07-16T03:55:28.246Z,99.90
2018-07-16T03:57:56.701Z,99.90
2018-07-16T04:00:25.144Z,99.90
2018-07-16T04:02:53.566Z,99.90
2018-07-16T04:05:22.045Z,99.90
2018-07-16T04:07:50.478Z,99.90
2018-07-16T04:10:18.908Z,99.90
2018-07-16T04:12:47.409Z,99.90
2018-07-16T04:15:15.870Z,99.90
2018-07-16T04:17:44.324Z,99.90
2018-07-16T04:20:12.768Z,99.90
2018-07-16T04:22:41.212Z,99.90
2018-07-16T04:25:09.708Z,99.90
2018-07-16T04:27:38.141Z,99.90
2018-07-16T04:35:02.840Z,99.90
2018-07-16T04:37:31.257Z,99.90
2018-07-16T04:39:59.846Z,99.90
2018-07-16T04:42:28.157Z,99.90
2018-07-16T04:44:56.600Z,99.90
2018-07-16T04:47:25.073Z,99.90
2018-07-16T04:49:53.512Z,99.90
2018-07-16T04:52:22.045Z,99.90
2018-07-16T04:54:50.534Z,99.90
2018-07-16T04:57:18.978Z,99.90
2018-07-16T04:59:47.393Z,99.90
2018-07-16T05:02:15.822Z,99.90
2018-07-16T05:04:44.234Z,99.90
2018-07-16T05:07:12.684Z,99.90
2018-07-16T05:09:41.112Z,99.90
2018-07-16T05:14:37.757Z,99.90
2018-07-16T05:17:06.204Z,99.90
2018-07-16T05:22:02.819Z,99.90
2018-07-16T05:24:31.251Z,99.90
2018-07-16T05:29:27.799Z,99.90
2018-07-16T05:31:56.449Z,99.90
2018-07-16T05:36:52.790Z,99.90
2018-07-16T05:39:21.832Z,99.90
2018-07-16T05:41:50.312Z,99.90
2018-07-16T05:44:18.764Z,99.90
2018-07-16T05:46:47.221Z,98.10
2018-07-16T05:49:15.910Z,93.00
2018-07-16T05:54:12.489Z,84.80
2018-07-16T05:56:40.940Z,76.70
2018-07-16T05:59:09.413Z,77.20
2018-07-16T06:01:37.860Z,81.00
2018-07-16T06:04:06.310Z,71.70
2018-07-16T06:06:34.793Z,70.60
2018-07-16T06:09:04.054Z,62.40
2018-07-16T06:11:32.574Z,57.60
2018-07-16T06:18:57.392Z,51.60
2018-07-16T06:21:25.869Z,49.30
2018-07-16T06:23:54.367Z,49.00
2018-07-16T06:26:22.826Z,47.60
2018-07-16T06:28:51.271Z,48.90
2018-07-16T06:31:19.737Z,45.00
2018-07-16T06:33:48.177Z,45.20
2018-07-16T06:36:16.630Z,45.00
2018-07-16T06:38:45.091Z,42.30
2018-07-16T06:41:13.770Z,37.80
2018-07-16T06:43:42.019Z,38.80
2018-07-16T06:46:10.481Z,38.90
2018-07-16T06:51:07.093Z,37.70
2018-07-16T06:53:35.565Z,36.60
2018-07-16T06:56:04.037Z,35.10
2018-07-16T06:58:32.517Z,32.70
2018-07-16T07:01:00.982Z,32.80
2018-07-16T07:03:29.441Z,32.70
2018-07-16T07:05:57.897Z,34.70
2018-07-16T07:08:26.358Z,35.40
2018-07-16T07:10:54.808Z,35.00
2018-07-16T07:13:23.273Z,35.90
2018-07-16T07:15:51.725Z,36.20
2018-07-16T07:18:20.168Z,34.10
2018-07-16T07:20:48.605Z,33.00
2018-07-16T07:23:17.076Z,32.10
2018-07-16T07:25:45.533Z,31.70
2018-07-16T07:28:13.993Z,30.00
2018-07-16T07:30:42.461Z,31.00
2018-07-16T07:33:10.910Z,32.70
2018-07-16T07:35:39.421Z,32.10
2018-07-16T07:38:07.910Z,31.70
2018-07-16T07:40:36.364Z,30.30
2018-07-16T07:43:04.861Z,30.10
2018-07-16T07:45:33.482Z,29.60
2018-07-16T07:48:01.932Z,29.70
2018-07-16T07:50:30.417Z,29.00
2018-07-16T07:52:58.898Z,30.00
2018-07-16T07:57:55.568Z,28.50
2018-07-16T08:05:20.299Z,25.90
2018-07-16T08:07:48.739Z,25.10
2018-07-16T08:10:17.249Z,26.80
2018-07-16T08:12:45.688Z,27.40
2018-07-16T08:15:14.169Z,26.50
2018-07-16T08:17:42.700Z,26.20
2018-07-16T08:20:11.182Z,25.10
2018-07-16T08:22:39.674Z,24.60
2018-07-16T08:25:08.181Z,23.70
2018-07-16T08:27:36.656Z,25.30
2018-07-16T08:32:33.300Z,24.10
2018-07-16T08:35:01.789Z,24.80
2018-07-16T08:37:30.265Z,24.10
2018-07-16T08:39:58.774Z,24.50
2018-07-16T08:42:27.255Z,24.90
2018-07-16T08:47:23.838Z,23.80
2018-07-16T08:49:52.302Z,23.40
2018-07-16T08:52:20.768Z,22.70
2018-07-16T08:54:49.264Z,23.30
2018-07-16T08:57:17.723Z,23.00
2018-07-16T08:59:46.181Z,21.50
2018-07-16T09:02:14.621Z,21.30
2018-07-16T09:04:43.083Z,21.80
2018-07-16T09:07:11.529Z,20.80
2018-07-16T09:09:40.020Z,20.60
2018-07-16T09:12:08.678Z,22.20
2018-07-16T09:14:37.183Z,21.50
2018-07-16T09:17:05.692Z,21.90
2018-07-16T09:19:34.175Z,21.40
2018-07-16T09:22:02.653Z,19.80
2018-07-16T09:24:31.076Z,19.90
2018-07-16T09:26:59.537Z,20.40
2018-07-16T09:29:27.976Z,21.70
2018-07-16T09:31:56.441Z,20.80
2018-07-16T09:36:53.026Z,19.60
2018-07-16T09:39:21.494Z,19.60
2018-07-16T09:41:50.016Z,18.80
2018-07-16T09:44:18.512Z,18.60
2018-07-16T09:46:46.969Z,19.10
2018-07-16T09:49:15.477Z,19.30
2018-07-16T09:51:43.943Z,17.60
2018-07-16T09:54:12.389Z,18.20
2018-07-16T09:56:40.833Z,18.20
2018-07-16T09:59:09.341Z,17.70
2018-07-16T10:01:46.238Z,18.70
2018-07-16T10:04:15.288Z,19.60
2018-07-16T10:09:11.861Z,18.00
2018-07-16T10:14:08.582Z,16.90
2018-07-16T10:16:37.055Z,16.70
2018-07-16T10:19:05.560Z,15.80
2018-07-16T10:21:34.029Z,16.40
2018-07-16T10:24:02.494Z,16.80
2018-07-16T10:26:30.966Z,17.50
2018-07-16T10:33:55.729Z,16.00
2018-07-16T10:36:24.125Z,16.50
2018-07-16T10:38:52.652Z,16.90
2018-07-16T10:41:21.091Z,15.80
2018-07-16T10:43:51.561Z,15.70
2018-07-16T10:46:20.002Z,15.30
2018-07-16T10:53:44.754Z,17.50
2018-07-16T10:58:41.369Z,16.90
2018-07-16T11:03:38.064Z,17.40
2018-07-16T11:06:12.180Z,16.80
2018-07-16T11:08:40.647Z,16.40
2018-07-16T11:13:37.252Z,16.30
2018-07-16T11:16:05.789Z,16.00
2018-07-16T11:18:34.254Z,16.20
2018-07-16T11:21:02.739Z,14.80
2018-07-16T11:23:31.206Z,15.40
2018-07-16T11:28:27.817Z,17.30
2018-07-16T11:30:56.248Z,16.60
2018-07-16T11:38:21.005Z,16.20
2018-07-16T11:43:17.519Z,15.90
2018-07-16T11:48:14.077Z,15.50
2018-07-16T11:50:42.674Z,16.20
2018-07-16T11:53:11.535Z,15.80
2018-07-16T12:17:53.254Z,14.10
2018-07-16T12:20:21.756Z,14.00
2018-07-16T12:22:50.160Z,14.00
2018-07-16T12:27:46.728Z,14.80
2018-07-16T12:42:35.826Z,14.20
2018-07-16T12:50:00.886Z,14.60
2018-07-16T12:52:29.310Z,15.60
2018-07-16T12:54:57.799Z,15.20
2018-07-16T12:57:26.932Z,16.30
2018-07-16T12:59:55.465Z,14.50
2018-07-16T13:02:23.889Z,14.90
2018-07-16T13:07:20.493Z,14.40
2018-07-16T13:09:48.941Z,14.50
2018-07-16T13:17:13.643Z,14.80
2018-07-16T13:19:42.174Z,14.20
2018-07-16T13:22:10.640Z,13.60
2018-07-16T13:27:07.245Z,13.40
2018-07-16T13:32:03.927Z,13.60
2018-07-16T13:34:32.392Z,15.10
2018-07-16T13:37:00.920Z,16.10
2018-07-16T13:39:29.352Z,16.30
2018-07-16T13:41:57.810Z,16.50
2018-07-16T13:46:54.507Z,15.20
2018-07-16T13:49:22.941Z,14.90
2018-07-16T13:51:51.388Z,14.80
2018-07-16T13:54:19.861Z,15.10
2018-07-16T13:56:48.330Z,14.50
2018-07-16T13:59:16.783Z,14.60
2018-07-16T14:04:13.320Z,17.10
2018-07-16T14:06:41.769Z,16.60
2018-07-16T14:09:10.204Z,15.40
2018-07-16T14:11:38.674Z,15.90
2018-07-16T14:14:07.229Z,15.30
2018-07-16T14:16:35.706Z,16.00
2018-07-16T14:19:04.167Z,15.40
2018-07-16T14:21:32.676Z,16.70
2018-07-16T14:24:01.129Z,17.30
2018-07-16T14:26:29.597Z,17.70
2018-07-16T14:28:58.063Z,16.90
2018-07-16T14:31:26.568Z,16.40
2018-07-16T14:33:55.755Z,16.30
2018-07-16T14:36:24.185Z,15.90
2018-07-16T14:38:52.652Z,16.60
2018-07-16T14:41:21.102Z,16.80
2018-07-16T14:43:49.577Z,17.10
2018-07-16T14:46:18.026Z,16.90
2018-07-16T14:48:46.509Z,16.00
2018-07-16T14:51:15.238Z,15.70
2018-07-16T14:53:44.313Z,15.30
2018-07-16T14:56:12.754Z,16.00
2018-07-16T14:58:41.280Z,15.70
2018-07-16T15:01:09.771Z,14.40
2018-07-16T15:03:38.258Z,16.10
2018-07-16T15:06:06.717Z,15.40
2018-07-16T15:08:35.178Z,14.40
2018-07-16T15:13:38.475Z,14.90
2018-07-16T15:16:06.934Z,14.90
2018-07-16T15:18:35.432Z,15.60
2018-07-16T15:21:04.076Z,14.80
2018-07-16T15:23:32.389Z,14.00
2018-07-16T15:26:00.869Z,14.90
2018-07-16T15:28:29.292Z,16.10
2018-07-16T15:30:57.725Z,14.40
2018-07-16T15:33:26.218Z,14.90
2018-07-16T15:35:54.661Z,14.10
2018-07-16T15:38:23.120Z,15.10
2018-07-16T15:40:51.560Z,15.40
2018-07-16T15:43:20.033Z,17.10
2018-07-16T15:45:48.742Z,16.20
2018-07-16T15:48:17.874Z,16.30
2018-07-16T15:50:46.256Z,16.50
2018-07-16T15:53:15.077Z,15.20
2018-07-16T15:55:43.544Z,15.70
2018-07-16T16:00:41.066Z,16.30
2018-07-16T16:03:09.672Z,16.30
2018-07-16T16:05:38.690Z,16.00
2018-07-16T16:08:07.149Z,15.70
2018-07-16T16:10:35.638Z,16.70
2018-07-16T16:13:04.117Z,17.20
2018-07-16T16:15:32.593Z,16.30
2018-07-16T16:18:01.041Z,17.00
2018-07-16T16:20:29.469Z,17.50
2018-07-16T16:22:57.962Z,18.30
2018-07-16T16:25:26.405Z,17.50
2018-07-16T16:27:54.858Z,17.20
2018-07-16T16:30:23.905Z,17.20
2018-07-16T16:35:20.538Z,17.20
2018-07-16T16:37:49.051Z,17.00
2018-07-16T16:42:45.702Z,17.80
2018-07-16T16:45:14.159Z,17.60
2018-07-16T16:47:42.654Z,17.10
2018-07-16T16:50:11.121Z,17.20
2018-07-16T16:52:39.576Z,17.70
2018-07-16T16:55:08.105Z,17.60
2018-07-16T16:57:36.652Z,17.40
2018-07-16T17:05:01.788Z,18.20
2018-07-16T17:07:30.228Z,20.70
2018-07-16T17:12:26.833Z,19.90
2018-07-16T17:14:55.292Z,19.70
2018-07-16T17:17:23.745Z,19.70
2018-07-16T17:19:52.355Z,20.90
2018-07-16T17:22:20.782Z,20.70
2018-07-16T17:24:49.255Z,21.40
2018-07-16T17:27:17.732Z,20.60
2018-07-16T17:29:46.208Z,21.50
2018-07-16T17:32:14.662Z,22.30
2018-07-16T17:34:43.286Z,21.90
2018-07-16T17:37:11.710Z,20.60
2018-07-16T17:39:40.183Z,21.90
2018-07-16T17:42:08.630Z,21.50
2018-07-16T17:44:37.121Z,21.40
2018-07-16T17:47:06.957Z,21.00
2018-07-16T17:49:35.438Z,20.20
2018-07-16T17:52:06.023Z,22.30
2018-07-16T17:54:34.609Z,23.70
2018-07-16T17:57:03.077Z,21.90
2018-07-16T17:59:31.550Z,23.00
2018-07-16T18:02:00.038Z,22.70
2018-07-16T18:04:28.505Z,22.80
2018-07-16T18:09:25.137Z,24.10
2018-07-16T18:11:53.630Z,24.40
2018-07-16T18:14:22.093Z,25.60
2018-07-16T18:16:50.617Z,24.80
2018-07-16T18:19:19.078Z,26.10
2018-07-16T18:21:47.622Z,25.70
2018-07-16T18:24:16.135Z,26.10
2018-07-16T18:26:44.585Z,25.50
2018-07-16T18:29:13.162Z,27.70
2018-07-16T18:31:41.654Z,26.40
2018-07-16T18:34:10.165Z,27.20
2018-07-16T18:36:38.635Z,27.40
2018-07-16T18:39:08.769Z,27.90
2018-07-16T18:41:37.306Z,27.70
2018-07-16T18:44:05.829Z,27.30
2018-07-16T18:46:34.381Z,28.40
2018-07-16T18:49:02.864Z,26.80
2018-07-16T18:51:31.606Z,27.10
2018-07-16T18:54:00.062Z,26.10
2018-07-16T18:56:28.605Z,26.30
2018-07-16T18:58:57.245Z,26.70
2018-07-16T19:01:25.752Z,27.50
2018-07-16T19:03:54.325Z,28.40
2018-07-16T19:06:22.860Z,29.50
2018-07-16T19:08:51.335Z,30.80
2018-07-16T19:11:19.826Z,29.70
2018-07-16T19:16:16.447Z,29.80
2018-07-16T19:18:44.920Z,30.00
2018-07-16T19:21:13.414Z,33.50
2018-07-16T19:23:41.896Z,30.50
2018-07-16T19:26:10.377Z,29.50
2018-07-16T19:28:38.896Z,31.60
2018-07-16T19:31:07.372Z,29.90
2018-07-16T19:33:35.819Z,32.90
2018-07-16T19:36:04.297Z,32.40
2018-07-16T19:38:32.839Z,32.50
2018-07-16T19:43:29.420Z,33.20
2018-07-16T19:48:26.029Z,39.10
2018-07-16T19:50:54.491Z,45.10
2018-07-16T19:53:22.991Z,42.00
2018-07-16T19:55:51.428Z,45.70
2018-07-16T19:58:19.869Z,42.50
2018-07-16T20:00:48.309Z,41.10
2018-07-16T20:03:16.782Z,40.60
2018-07-16T20:08:13.343Z,43.10
2018-07-16T20:10:41.846Z,39.70
2018-07-16T20:13:10.287Z,41.70
2018-07-16T20:15:38.938Z,43.80
2018-07-16T20:18:07.332Z,41.30
2018-07-16T20:20:51.311Z,42.60
2018-07-16T20:23:19.905Z,44.10
2018-07-16T20:25:48.625Z,43.60
2018-07-16T20:28:17.315Z,42.90
2018-07-16T20:30:45.782Z,43.60
2018-07-16T20:33:14.252Z,44.60
2018-07-16T20:35:49.521Z,43.30
2018-07-16T20:38:18.047Z,44.50
2018-07-16T20:40:47.004Z,44.60
2018-07-16T20:43:15.453Z,42.90
2018-07-16T20:45:43.962Z,43.80
2018-07-16T20:48:12.384Z,45.40
2018-07-16T20:50:40.872Z,44.40
2018-07-16T20:53:09.341Z,46.20
2018-07-16T20:55:37.831Z,43.30
2018-07-16T20:58:06.430Z,45.50
2018-07-16T21:00:34.889Z,47.10
2018-07-16T21:03:03.380Z,49.00
2018-07-16T21:05:31.853Z,50.50
2018-07-16T21:08:00.301Z,52.30
2018-07-16T21:10:28.786Z,50.00
2018-07-16T21:12:57.308Z,51.80
2018-07-16T21:15:25.776Z,51.70
2018-07-16T21:17:54.269Z,53.50
2018-07-16T21:20:22.706Z,52.20
2018-07-16T21:22:51.192Z,51.30
2018-07-16T21:27:47.837Z,51.80
2018-07-16T21:30:16.544Z,52.40
2018-07-16T21:32:44.965Z,53.00
2018-07-16T21:35:13.426Z,53.00
2018-07-16T21:37:42.450Z,54.30
2018-07-16T21:40:11.190Z,55.10
2018-07-16T21:42:39.868Z,55.00
2018-07-16T21:45:08.320Z,56.30
2018-07-16T21:47:36.812Z,56.90
2018-07-16T21:50:05.545Z,54.40
2018-07-16T21:55:02.244Z,55.50
2018-07-16T21:57:30.709Z,56.90
2018-07-16T21:59:59.241Z,59.20
2018-07-16T22:02:27.688Z,58.40
2018-07-16T22:04:56.236Z,58.90
2018-07-16T22:07:24.922Z,61.60
2018-07-16T22:09:53.635Z,63.90
2018-07-16T22:12:22.321Z,66.30
2018-07-16T22:14:50.773Z,63.70
2018-07-16T22:17:19.240Z,64.30
2018-07-16T22:19:47.668Z,66.40
2018-07-16T22:22:16.145Z,67.10
2018-07-16T22:24:44.884Z,65.60
2018-07-16T22:27:13.645Z,74.90
2018-07-16T22:29:42.308Z,73.60
2018-07-16T22:32:11.109Z,75.00
2018-07-16T22:34:39.549Z,72.30
2018-07-16T22:39:36.120Z,73.70
2018-07-16T22:42:04.806Z,78.30
2018-07-16T22:47:01.830Z,79.10
2018-07-16T22:49:30.283Z,81.10
2018-07-16T22:51:58.731Z,78.10
2018-07-16T22:54:27.190Z,84.60
2018-07-16T22:56:55.638Z,82.60
2018-07-16T22:59:24.081Z,88.80
2018-07-16T23:01:52.513Z,90.00
2018-07-16T23:04:20.969Z,91.60
2018-07-16T23:06:49.395Z,92.50
2018-07-16T23:09:17.852Z,92.30
2018-07-16T23:11:46.307Z,91.70
2018-07-16T23:16:42.966Z,93.60
2018-07-16T23:19:11.405Z,93.70
2018-07-16T23:21:39.853Z,93.60
2018-07-16T23:24:08.280Z,94.30
2018-07-16T23:26:36.747Z,96.80
2018-07-16T23:29:05.293Z,94.70
2018-07-16T23:34:01.928Z,92.50
2018-07-16T23:36:30.389Z,93.30
2018-07-16T23:38:58.856Z,94.90
2018-07-16T23:41:27.298Z,94.90
2018-07-16T23:43:55.846Z,94.50
2018-07-16T23:46:24.317Z,93.10
2018-07-16T23:48:52.755Z,92.60
2018-07-16T23:51:21.234Z,93.70
2018-07-16T23:53:49.665Z,93.20
2018-07-16T23:56:18.109Z,94.00
2018-07-16T23:58:46.537Z,95.60
